Aviation Digital Data Service (ADDS)

Output produced by METARs form (0653 UTC 28 August 2016)
found at http://aviationweather.gov/adds/metars/
 
KBTV 280539Z 2806/2906 VRB03KT P6SM BKN060 
     FM281200 18008KT P6SM SCT150 
     FM281800 18010G20KT P6SM VCSH BKN050 
     FM290100 20008KT P6SM SCT050